createdAt,value
2018-08-27T00:00:22.437Z,18
2018-08-27T00:01:23.623Z,18
2018-08-27T00:02:27.116Z,18
2018-08-27T00:03:28.356Z,18
2018-08-27T00:04:29.608Z,18.1
2018-08-27T00:05:30.883Z,18
2018-08-27T00:06:32.101Z,17.8
2018-08-27T00:07:33.287Z,18
2018-08-27T00:08:34.795Z,18.1
2018-08-27T00:09:41.953Z,18.2
2018-08-27T00:10:45.379Z,18.1
2018-08-27T00:11:48.463Z,18.1
2018-08-27T00:12:49.652Z,18.1
2018-08-27T00:13:50.911Z,18.1
2018-08-27T00:14:52.130Z,18.2
2018-08-27T00:15:53.368Z,18.1
2018-08-27T00:16:57.581Z,18.1
2018-08-27T00:17:59.061Z,18
2018-08-27T00:19:00.481Z,18.1
2018-08-27T00:20:01.774Z,18.2
2018-08-27T00:21:02.982Z,18.2
2018-08-27T00:22:06.671Z,18.2
2018-08-27T00:23:08.241Z,18.1
2018-08-27T00:24:09.759Z,18.1
2018-08-27T00:25:10.963Z,18.1
2018-08-27T00:26:12.164Z,18.1
2018-08-27T00:27:16.519Z,18.2
2018-08-27T00:28:17.730Z,18.1
2018-08-27T00:29:19.651Z,18.1
2018-08-27T00:30:25.700Z,18.2
2018-08-27T00:31:26.904Z,18.2
2018-08-27T00:32:28.135Z,18.3
2018-08-27T00:33:32.528Z,18.3
2018-08-27T00:34:33.791Z,18.2
2018-08-27T00:35:34.996Z,18.1
2018-08-27T00:36:36.276Z,18.1
2018-08-27T00:37:40.557Z,18.1
2018-08-27T00:38:41.775Z,18.1
2018-08-27T00:39:47.986Z,18
2018-08-27T00:40:49.972Z,18
2018-08-27T00:41:51.251Z,18
2018-08-27T00:42:52.445Z,18.1
2018-08-27T00:44:01.543Z,17.8
2018-08-27T00:45:02.805Z,18.1
2018-08-27T00:46:04.010Z,18
2018-08-27T00:47:05.280Z,18
2018-08-27T00:48:06.472Z,18
2018-08-27T00:49:07.660Z,17.9
2018-08-27T00:50:13.644Z,18.2
2018-08-27T00:51:14.832Z,18.2
2018-08-27T00:52:18.511Z,18.2
2018-08-27T00:53:19.700Z,18
2018-08-27T00:54:20.908Z,18
2018-08-27T00:55:22.197Z,18
2018-08-27T00:56:23.713Z,17.8
2018-08-27T00:57:25.383Z,18
2018-08-27T00:58:26.589Z,17.9
2018-08-27T00:59:27.780Z,17.9
2018-08-27T01:00:31.757Z,17.9
2018-08-27T01:01:32.920Z,18
2018-08-27T01:02:34.129Z,18.1
2018-08-27T01:03:35.308Z,18.1
2018-08-27T01:04:36.490Z,18.1
2018-08-27T01:05:39.834Z,18.2
2018-08-27T01:06:43.247Z,18.2
2018-08-27T01:07:44.450Z,18.1
2018-08-27T01:08:45.688Z,18.1
2018-08-27T01:09:46.872Z,18.1
2018-08-27T01:10:48.399Z,18.1
2018-08-27T01:11:49.643Z,18.1
2018-08-27T01:12:50.847Z,18.1
2018-08-27T01:13:52.033Z,18.1
2018-08-27T01:14:53.268Z,18
2018-08-27T01:15:54.488Z,18.1
2018-08-27T01:16:55.723Z,18.1
2018-08-27T01:17:57.997Z,18.2
2018-08-27T01:18:59.236Z,18.1
2018-08-27T01:20:00.430Z,18
2018-08-27T01:21:01.685Z,18
2018-08-27T01:22:04.143Z,18.1
2018-08-27T01:23:05.326Z,18.1
2018-08-27T01:24:06.558Z,18
2018-08-27T01:25:07.773Z,18.1
2018-08-27T01:26:09.017Z,18.1
2018-08-27T01:27:10.238Z,18
2018-08-27T01:28:14.227Z,18.1
2018-08-27T01:29:18.200Z,18.2
2018-08-27T01:30:19.405Z,18.2
2018-08-27T01:31:20.901Z,18.1
2018-08-27T01:32:22.083Z,18.1
2018-08-27T01:33:23.298Z,18.1
2018-08-27T01:34:24.481Z,18
2018-08-27T01:35:25.668Z,18.2
2018-08-27T01:36:26.977Z,18.1
2018-08-27T01:37:28.175Z,18.1
2018-08-27T01:38:29.404Z,18.2
2018-08-27T01:39:30.620Z,18.1
2018-08-27T01:40:31.876Z,18.1
2018-08-27T01:41:33.392Z,18.1
2018-08-27T01:42:34.647Z,18.3
2018-08-27T01:43:35.906Z,18.3
2018-08-27T01:44:37.164Z,18.2
2018-08-27T01:45:38.345Z,18.3
2018-08-27T01:46:39.862Z,18.3
2018-08-27T01:47:41.091Z,18.4
2018-08-27T01:48:42.263Z,18.3
2018-08-27T01:49:43.534Z,18.3
2018-08-27T01:50:44.758Z,18.3
2018-08-27T01:51:46.008Z,18.3
2018-08-27T01:52:47.232Z,18.4
2018-08-27T01:53:48.419Z,18.4
2018-08-27T01:54:49.604Z,18.5
2018-08-27T01:55:50.780Z,18.5
2018-08-27T01:56:54.438Z,18.4
2018-08-27T01:57:57.937Z,18.4
2018-08-27T01:58:59.150Z,18.4
2018-08-27T02:00:00.388Z,18.4
2018-08-27T02:01:03.504Z,18.4
2018-08-27T02:02:05.110Z,18.5
2018-08-27T02:03:11.986Z,18.4
2018-08-27T02:04:13.759Z,18.4
2018-08-27T02:05:14.972Z,18.4
2018-08-27T02:06:16.875Z,18.4
2018-08-27T02:07:18.119Z,18.4
2018-08-27T02:08:19.348Z,18.5
2018-08-27T02:09:20.574Z,18.4
2018-08-27T02:10:21.750Z,18.4
2018-08-27T02:11:22.983Z,18.4
2018-08-27T02:12:24.251Z,18.3
2018-08-27T02:13:25.459Z,18.5
2018-08-27T02:14:26.727Z,18.5
2018-08-27T02:15:30.806Z,18.5
2018-08-27T02:16:32.075Z,18.5
2018-08-27T02:17:33.312Z,18.4
2018-08-27T02:18:34.539Z,18.4
2018-08-27T02:19:35.744Z,18.4
2018-08-27T02:20:36.955Z,18.4
2018-08-27T02:21:38.188Z,18.3
2018-08-27T02:22:42.180Z,18.3
2018-08-27T02:23:43.393Z,18.3
2018-08-27T02:24:44.610Z,18.3
2018-08-27T02:25:45.850Z,18.4
2018-08-27T02:26:47.024Z,18.4
2018-08-27T02:27:48.252Z,18.3
2018-08-27T02:28:49.509Z,18.3
2018-08-27T02:29:50.723Z,18.3
2018-08-27T02:30:52.945Z,18.4
2018-08-27T02:31:54.147Z,18.4
2018-08-27T02:32:58.417Z,18.3
2018-08-27T02:33:59.610Z,18.3
2018-08-27T02:35:00.829Z,18.4
2018-08-27T02:36:01.985Z,18.3
2018-08-27T02:37:03.222Z,18.2
2018-08-27T02:38:04.458Z,18.3
2018-08-27T02:39:08.075Z,18.3
2018-08-27T02:40:09.287Z,18.5
2018-08-27T02:41:10.523Z,18.4
2018-08-27T02:42:14.312Z,18.3
2018-08-27T02:43:15.963Z,18.3
2018-08-27T02:44:17.179Z,18.3
2018-08-27T02:45:18.424Z,18.1
2018-08-27T02:46:19.623Z,18.1
2018-08-27T02:47:20.800Z,18.2
2018-08-27T02:48:22.250Z,18.1
2018-08-27T02:49:23.448Z,18.1
2018-08-27T02:50:24.638Z,18.2
2018-08-27T02:51:25.865Z,18.2
2018-08-27T02:52:27.076Z,18.1
2018-08-27T02:53:28.287Z,18.3
2018-08-27T02:54:29.565Z,18.3
2018-08-27T02:55:32.744Z,18.2
2018-08-27T02:56:33.970Z,18.1
2018-08-27T02:57:35.184Z,18
2018-08-27T02:58:36.616Z,18.2
2018-08-27T02:59:37.977Z,18.1
2018-08-27T03:00:39.266Z,18.1
2018-08-27T03:01:40.451Z,18.1
2018-08-27T03:02:41.685Z,18.1
2018-08-27T03:03:44.248Z,18.1
2018-08-27T03:04:45.452Z,18.2
2018-08-27T03:05:46.684Z,18.2
2018-08-27T03:06:47.896Z,18.3
2018-08-27T03:07:49.087Z,18.3
2018-08-27T03:08:50.317Z,18.2
2018-08-27T03:09:51.508Z,18.1
2018-08-27T03:10:52.710Z,18.1
2018-08-27T03:11:53.908Z,18.1
2018-08-27T03:12:55.103Z,18
2018-08-27T03:13:56.582Z,18.1
2018-08-27T03:14:57.770Z,18
2018-08-27T03:15:59.028Z,18
2018-08-27T03:17:00.289Z,18
2018-08-27T03:18:01.616Z,18
2018-08-27T03:19:02.895Z,17.9
2018-08-27T03:20:04.125Z,17.9
2018-08-27T03:21:05.323Z,17.9
2018-08-27T03:22:06.557Z,17.8
2018-08-27T03:23:07.755Z,17.9
2018-08-27T03:24:09.002Z,17.8
2018-08-27T03:25:10.253Z,17.9
2018-08-27T03:26:11.412Z,17.7
2018-08-27T03:27:12.611Z,17.8
2018-08-27T03:28:13.820Z,17.8
2018-08-27T03:29:15.346Z,17.8
2018-08-27T03:30:16.521Z,17.8
2018-08-27T03:31:17.777Z,17.8
2018-08-27T03:32:19.271Z,17.8
2018-08-27T03:33:20.498Z,17.9
2018-08-27T03:34:21.704Z,17.9
2018-08-27T03:35:22.915Z,17.8
2018-08-27T03:36:24.170Z,17.6
2018-08-27T03:37:25.450Z,17.6
2018-08-27T03:38:26.780Z,17.7
2018-08-27T03:39:28.034Z,17.7
2018-08-27T03:40:29.287Z,17.7
2018-08-27T03:41:30.465Z,17.7
2018-08-27T03:42:34.166Z,17.6
2018-08-27T03:43:35.359Z,17.6
2018-08-27T03:44:36.576Z,17.6
2018-08-27T03:45:40.410Z,17.6
2018-08-27T03:46:41.731Z,17.6
2018-08-27T03:47:44.748Z,17.5
2018-08-27T03:48:45.954Z,17.5
2018-08-27T03:49:47.269Z,17.4
2018-08-27T03:50:48.497Z,17.4
2018-08-27T03:51:49.695Z,17.4
2018-08-27T03:52:50.917Z,17.4
2018-08-27T03:53:52.138Z,17.5
2018-08-27T03:54:53.380Z,17.5
2018-08-27T03:55:54.639Z,17.4
2018-08-27T03:56:55.879Z,17.4
2018-08-27T03:57:57.101Z,17.5
2018-08-27T03:58:58.333Z,17.6
2018-08-27T04:00:00.989Z,17.6
2018-08-27T04:01:02.194Z,17.6
2018-08-27T04:02:03.412Z,17.7
2018-08-27T04:03:04.619Z,17.6
2018-08-27T04:04:05.811Z,17.8
2018-08-27T04:05:07.083Z,17.8
2018-08-27T04:06:08.266Z,17.8
2018-08-27T04:07:09.485Z,17.9
2018-08-27T04:08:10.711Z,17.9
2018-08-27T04:09:11.926Z,18
2018-08-27T04:10:13.179Z,17.7
2018-08-27T04:11:14.404Z,17.8
2018-08-27T04:12:15.627Z,17.9
2018-08-27T04:13:16.838Z,18
2018-08-27T04:14:18.317Z,17.9
2018-08-27T04:15:19.544Z,18
2018-08-27T04:16:20.796Z,18.1
2018-08-27T04:17:22.113Z,18
2018-08-27T04:18:23.314Z,18.2
2018-08-27T04:19:24.515Z,18.2
2018-08-27T04:20:25.768Z,18.1
2018-08-27T04:21:28.863Z,18.1
2018-08-27T04:22:30.071Z,18.1
2018-08-27T04:23:31.284Z,18.2
2018-08-27T04:24:32.453Z,18.2
2018-08-27T04:25:33.664Z,18.1
2018-08-27T04:26:34.873Z,18.1
2018-08-27T04:27:36.109Z,18.1
2018-08-27T04:28:37.339Z,18.1
2018-08-27T04:29:38.552Z,18.1
2018-08-27T04:30:39.826Z,18.1
2018-08-27T04:31:41.012Z,18.1
2018-08-27T04:32:42.255Z,18
2018-08-27T04:33:43.467Z,18.1
2018-08-27T04:34:44.708Z,18.1
2018-08-27T04:35:45.902Z,18.1
2018-08-27T04:36:47.118Z,18.1
2018-08-27T04:37:48.336Z,18.1
2018-08-27T04:38:49.575Z,18.2
2018-08-27T04:39:50.786Z,18.1
2018-08-27T04:40:52.077Z,18.3
2018-08-27T04:41:53.256Z,18.2
2018-08-27T04:42:54.461Z,18.2
2018-08-27T04:43:55.667Z,18.1
2018-08-27T04:44:56.896Z,18.2
2018-08-27T04:45:58.448Z,18.1
2018-08-27T04:46:59.652Z,18
2018-08-27T04:48:00.897Z,18.1
2018-08-27T04:49:02.155Z,18.1
2018-08-27T04:50:03.392Z,18.2
2018-08-27T04:51:04.607Z,18.2
2018-08-27T04:52:05.858Z,18.1
2018-08-27T04:53:07.116Z,18.1
2018-08-27T04:54:08.315Z,18
2018-08-27T04:55:09.518Z,18.1
2018-08-27T04:56:11.155Z,18.1
2018-08-27T04:57:12.631Z,18.1
2018-08-27T04:58:14.165Z,18.1
2018-08-27T04:59:15.473Z,18.3
2018-08-27T05:00:16.663Z,18.3
2018-08-27T05:01:19.713Z,18.3
2018-08-27T05:02:21.102Z,18.3
2018-08-27T05:03:22.332Z,18.2
2018-08-27T05:04:23.515Z,18.2
2018-08-27T05:05:24.712Z,18.4
2018-08-27T05:06:25.991Z,18.3
2018-08-27T05:07:27.318Z,18.3
2018-08-27T05:08:28.554Z,18.3
2018-08-27T05:09:29.772Z,18.3
2018-08-27T05:10:30.988Z,18.3
2018-08-27T05:11:32.493Z,18.2
2018-08-27T05:12:34.113Z,18.3
2018-08-27T05:13:35.332Z,18.2
2018-08-27T05:14:36.517Z,18.2
2018-08-27T05:15:37.841Z,18.2
2018-08-27T05:16:39.112Z,18.3
2018-08-27T05:17:42.143Z,18.3
2018-08-27T05:18:43.380Z,18.3
2018-08-27T05:19:44.604Z,18.2
2018-08-27T05:20:45.933Z,18.3
2018-08-27T05:21:47.937Z,18.3
2018-08-27T05:22:49.218Z,18.2
2018-08-27T05:23:50.445Z,18.2
2018-08-27T05:24:51.643Z,18.2
2018-08-27T05:25:52.876Z,18.1
2018-08-27T05:26:54.152Z,18.2
2018-08-27T05:27:55.377Z,18.2
2018-08-27T05:28:59.652Z,18.2
2018-08-27T05:30:00.927Z,18.1
2018-08-27T05:31:02.276Z,18
2018-08-27T05:32:03.476Z,18
2018-08-27T05:33:04.698Z,18.1
2018-08-27T05:34:05.949Z,18.1
2018-08-27T05:35:07.224Z,18
2018-08-27T05:36:08.589Z,18.1
2018-08-27T05:37:09.876Z,18.1
2018-08-27T05:38:11.294Z,18.1
2018-08-27T05:39:12.508Z,17.9
2018-08-27T05:40:13.826Z,17.9
2018-08-27T05:41:18.135Z,17.8
2018-08-27T05:42:22.408Z,17.6
2018-08-27T05:43:23.640Z,17.9
2018-08-27T05:44:27.322Z,17.9
2018-08-27T05:45:30.106Z,17.8
2018-08-27T05:46:31.548Z,17.8
2018-08-27T05:47:32.922Z,17.8
2018-08-27T05:48:34.188Z,17.8
2018-08-27T05:49:35.469Z,17.9
2018-08-27T05:50:39.051Z,17.6
2018-08-27T05:51:40.443Z,18
2018-08-27T05:52:41.969Z,17.9
2018-08-27T05:53:43.317Z,17.9
2018-08-27T05:54:47.654Z,17.9
2018-08-27T05:55:49.546Z,17.8
2018-08-27T05:56:50.796Z,17.8
2018-08-27T05:57:52.052Z,17.9
2018-08-27T05:58:53.380Z,17.8
2018-08-27T05:59:54.636Z,17.8
2018-08-27T06:00:55.872Z,17.8
2018-08-27T06:01:57.115Z,17.8
2018-08-27T06:02:59.806Z,17.8
2018-08-27T06:04:01.091Z,17.9
2018-08-27T06:05:02.429Z,18
2018-08-27T06:06:07.717Z,18
2018-08-27T06:07:09.509Z,18.2
2018-08-27T06:08:11.548Z,18.2
2018-08-27T06:09:13.685Z,18.2
2018-08-27T06:10:14.835Z,18.1
2018-08-27T06:11:16.145Z,18.1
2018-08-27T06:12:17.309Z,18.1
2018-08-27T06:13:21.124Z,18.3
2018-08-27T06:14:22.379Z,18.3
2018-08-27T06:15:23.690Z,18.2
2018-08-27T06:16:26.856Z,18
2018-08-27T06:17:30.230Z,18.1
2018-08-27T06:18:31.547Z,18.3
2018-08-27T06:19:32.772Z,18.3
2018-08-27T06:20:34.008Z,18.2
2018-08-27T06:21:38.037Z,18.1
2018-08-27T06:22:39.252Z,18.2
2018-08-27T06:23:43.276Z,18.2
2018-08-27T06:24:44.502Z,18.4
2018-08-27T06:25:45.809Z,18.3
2018-08-27T06:26:47.272Z,18.3
2018-08-27T06:27:48.645Z,18.3
2018-08-27T06:28:52.744Z,18.4
2018-08-27T06:29:54.035Z,18.3
2018-08-27T06:30:55.832Z,18.2
2018-08-27T06:31:58.322Z,18.2
2018-08-27T06:33:00.873Z,18.2
2018-08-27T06:34:02.220Z,18.2
2018-08-27T06:35:03.520Z,18.3
2018-08-27T06:36:04.781Z,18.4
2018-08-27T06:37:08.970Z,18.4
2018-08-27T06:38:10.179Z,18.5
2018-08-27T06:39:15.696Z,18.4
2018-08-27T06:40:17.590Z,18.5
2018-08-27T06:41:18.878Z,18.4
2018-08-27T06:42:20.083Z,18.4
2018-08-27T06:43:21.570Z,18.5
2018-08-27T06:44:22.849Z,18.5
2018-08-27T06:45:24.658Z,18.5
2018-08-27T06:46:30.989Z,18.3
2018-08-27T06:47:32.415Z,18.4
2018-08-27T06:48:33.642Z,18.4
2018-08-27T06:49:34.924Z,18.5
2018-08-27T06:50:36.176Z,18.5
2018-08-27T06:51:46.447Z,18.4
2018-08-27T06:52:47.908Z,18.4
2018-08-27T06:53:51.567Z,18.5
2018-08-27T06:54:52.826Z,18.5
2018-08-27T06:55:54.048Z,18.5
2018-08-27T06:56:55.303Z,18.5
2018-08-27T06:58:00.302Z,18.3
2018-08-27T06:59:01.733Z,18.5
2018-08-27T07:00:02.973Z,18.5
2018-08-27T07:01:04.662Z,18.7
2018-08-27T07:02:06.006Z,18.5
2018-08-27T07:03:07.412Z,18.6
2018-08-27T07:04:08.689Z,18.7
2018-08-27T07:05:10.178Z,18.8
2018-08-27T07:06:11.425Z,18.8
2018-08-27T07:07:12.678Z,18.8
2018-08-27T07:08:13.984Z,18.7
2018-08-27T07:09:15.223Z,18.7
2018-08-27T07:10:16.556Z,18.7
2018-08-27T07:11:17.880Z,18.6
2018-08-27T07:12:19.180Z,18.6
2018-08-27T07:13:20.702Z,18.7
2018-08-27T07:14:22.089Z,18.7
2018-08-27T07:15:23.628Z,18.5
2018-08-27T07:16:24.981Z,18.6
2018-08-27T07:17:28.621Z,18.5
2018-08-27T07:18:31.038Z,18.5
2018-08-27T07:19:32.472Z,18.5
2018-08-27T07:20:33.927Z,18.4
2018-08-27T07:21:35.244Z,18.3
2018-08-27T07:22:36.587Z,18.5
2018-08-27T07:23:37.809Z,18.6
2018-08-27T07:24:39.160Z,18.6
2018-08-27T07:25:40.421Z,18.7
2018-08-27T07:26:41.642Z,18.7
2018-08-27T07:27:42.997Z,18.7
2018-08-27T07:28:44.309Z,18.7
2018-08-27T07:29:50.460Z,19.1
2018-08-27T07:30:54.183Z,19.5
2018-08-27T07:31:58.552Z,19.4
2018-08-27T07:32:59.848Z,19
2018-08-27T07:34:15.857Z,18.7
2018-08-27T07:35:18.247Z,18.7
2018-08-27T07:36:19.689Z,18.6
2018-08-27T07:37:20.967Z,18.7
2018-08-27T07:38:22.308Z,18.9
2018-08-27T07:39:23.735Z,18.8
2018-08-27T07:40:25.003Z,18.8
2018-08-27T07:41:26.343Z,18.8
2018-08-27T07:42:27.766Z,18.8
2018-08-27T07:43:32.079Z,18.7
2018-08-27T07:44:33.312Z,18.8
2018-08-27T07:45:34.512Z,18.9
2018-08-27T07:46:37.237Z,18.9
2018-08-27T07:47:38.694Z,18.9
2018-08-27T07:48:39.910Z,18.8
2018-08-27T07:49:41.173Z,18.9
2018-08-27T07:50:42.443Z,18.9
2018-08-27T07:51:43.840Z,18.9
2018-08-27T07:52:45.132Z,18.9
2018-08-27T07:53:46.356Z,18.9
2018-08-27T07:54:47.700Z,19
2018-08-27T07:55:51.610Z,19
2018-08-27T07:56:55.260Z,19
2018-08-27T07:57:56.532Z,19
2018-08-27T07:58:57.755Z,19.1
2018-08-27T08:00:01.160Z,19.1
2018-08-27T08:01:02.578Z,19
2018-08-27T08:02:04.130Z,19.1
2018-08-27T08:03:07.605Z,19.1
2018-08-27T08:04:10.003Z,19.1
2018-08-27T08:05:11.304Z,19.1
2018-08-27T08:06:12.546Z,19.2
2018-08-27T08:07:13.920Z,19.2
2018-08-27T08:08:15.210Z,19.2
2018-08-27T08:09:16.447Z,19.1
2018-08-27T08:10:17.671Z,19.2
2018-08-27T08:11:18.996Z,19.2
2018-08-27T08:12:20.284Z,19.2
2018-08-27T08:13:21.617Z,19.1
2018-08-27T08:14:22.867Z,19.2
2018-08-27T08:15:24.279Z,19.2
2018-08-27T08:16:25.725Z,19.3
2018-08-27T08:17:27.238Z,19.3
2018-08-27T08:18:28.770Z,19.4
2018-08-27T08:19:30.040Z,19.2
2018-08-27T08:20:33.748Z,19.2
2018-08-27T08:21:40.755Z,19.1
2018-08-27T08:22:47.600Z,19.2
2018-08-27T08:23:56.397Z,19.3
2018-08-27T08:25:00.377Z,19.2
2018-08-27T08:26:03.712Z,19.3
2018-08-27T08:27:20.395Z,19.4
2018-08-27T08:28:21.788Z,19.3
2018-08-27T08:29:23.008Z,19.3
2018-08-27T08:30:24.328Z,19.3
2018-08-27T08:31:25.598Z,19.3
2018-08-27T08:32:26.872Z,19.3
2018-08-27T08:33:28.243Z,19.1
2018-08-27T08:34:31.250Z,19.2
2018-08-27T08:35:35.256Z,19.2
2018-08-27T08:36:36.692Z,19.2
2018-08-27T08:37:38.686Z,19.2
2018-08-27T08:38:40.009Z,19.3
2018-08-27T08:39:41.328Z,19
2018-08-27T08:40:42.561Z,19.3
2018-08-27T08:41:43.815Z,19.2
2018-08-27T08:42:45.398Z,19.3
2018-08-27T08:43:55.837Z,19.2
2018-08-27T08:45:00.293Z,19.2
2018-08-27T08:46:01.572Z,19.3
2018-08-27T08:47:02.797Z,19.4
2018-08-27T08:48:04.085Z,19.3
2018-08-27T08:49:05.375Z,19.4
2018-08-27T08:50:06.658Z,19.4
2018-08-27T08:51:07.924Z,19.4
2018-08-27T08:52:09.484Z,19.3
2018-08-27T08:53:10.823Z,19.5
2018-08-27T08:54:12.338Z,19.4
2018-08-27T08:55:16.511Z,19.4
2018-08-27T08:56:18.036Z,19.3
2018-08-27T08:57:19.349Z,19.2
2018-08-27T08:58:20.971Z,19.5
2018-08-27T08:59:22.228Z,19.5
2018-08-27T09:00:24.676Z,19.5
2018-08-27T09:01:26.650Z,19.5
2018-08-27T09:02:28.366Z,19.5
2018-08-27T09:03:30.060Z,19.4
2018-08-27T09:04:31.338Z,19.5
2018-08-27T09:05:33.273Z,19.4
2018-08-27T09:06:34.549Z,19.5
2018-08-27T09:07:35.781Z,19.5
2018-08-27T09:08:39.667Z,19.5
2018-08-27T09:10:49.784Z,19.7
2018-08-27T09:11:51.304Z,19.6
2018-08-27T09:12:55.552Z,19.6
2018-08-27T09:13:57.014Z,19.6
2018-08-27T09:15:00.128Z,19.6
2018-08-27T09:16:06.480Z,19.7
2018-08-27T09:17:07.818Z,19.7
2018-08-27T09:18:09.018Z,19.7
2018-08-27T09:19:10.245Z,19.7
2018-08-27T09:20:11.738Z,19.8
2018-08-27T09:21:14.158Z,19.8
2018-08-27T09:22:15.427Z,19.8
2018-08-27T09:23:16.742Z,19.9
2018-08-27T09:24:18.189Z,19.9
2018-08-27T09:25:22.804Z,20
2018-08-27T09:26:24.313Z,20.1
2018-08-27T09:27:25.792Z,20
2018-08-27T09:28:27.042Z,20.1
2018-08-27T09:29:28.300Z,20.2
2018-08-27T09:30:33.834Z,20.1
2018-08-27T09:31:35.649Z,20.2
2018-08-27T09:32:39.844Z,20.3
2018-08-27T09:33:43.670Z,20.4
2018-08-27T09:34:44.892Z,20.5
2018-08-27T09:35:46.210Z,20.5
2018-08-27T09:36:47.468Z,20.5
2018-08-27T09:37:48.667Z,20.5
2018-08-27T09:38:50.190Z,20.4
2018-08-27T09:40:00.538Z,20.5
2018-08-27T09:41:01.837Z,20.4
2018-08-27T09:42:04.462Z,20.5
2018-08-27T09:43:06.207Z,20.5
2018-08-27T09:44:07.436Z,20.4
2018-08-27T09:45:09.960Z,20.6
2018-08-27T09:46:11.456Z,20.6
2018-08-27T09:47:12.777Z,20.6
2018-08-27T09:48:14.049Z,20.7
2018-08-27T09:49:15.297Z,20.7
2018-08-27T09:50:17.621Z,20.8
2018-08-27T09:51:21.734Z,20.6
2018-08-27T09:52:23.025Z,20.6
2018-08-27T09:53:25.234Z,20.6
2018-08-27T09:54:35.196Z,20.7
2018-08-27T09:55:36.495Z,20.7
2018-08-27T09:56:38.185Z,20.7
2018-08-27T09:57:42.676Z,20.7
2018-08-27T09:58:44.023Z,20.7
2018-08-27T09:59:47.455Z,20.8
2018-08-27T10:00:52.257Z,20.7
2018-08-27T10:02:08.382Z,20.7
2018-08-27T10:03:13.481Z,20.9
2018-08-27T10:04:26.001Z,20.9
2018-08-27T10:05:32.364Z,20.9
2018-08-27T10:06:36.709Z,21
2018-08-27T10:07:44.457Z,20.9
2018-08-27T10:08:45.761Z,20.9
2018-08-27T10:09:49.207Z,21
2018-08-27T10:10:50.445Z,21
2018-08-27T10:11:51.885Z,21
2018-08-27T10:12:53.358Z,20.9
2018-08-27T10:13:54.904Z,20.9
2018-08-27T10:14:56.185Z,20.9
2018-08-27T10:15:57.414Z,20.9
2018-08-27T10:17:01.111Z,21.1
2018-08-27T10:18:02.456Z,21
2018-08-27T10:19:03.710Z,21.1
2018-08-27T10:20:07.319Z,21.2
2018-08-27T10:21:08.694Z,21.1
2018-08-27T10:22:12.078Z,21.1
2018-08-27T10:23:13.684Z,21.1
2018-08-27T10:24:17.584Z,21.1
2018-08-27T10:25:18.898Z,21.2
2018-08-27T10:26:22.873Z,21.3
2018-08-27T10:27:24.126Z,21.2
2018-08-27T10:28:25.684Z,21.2
2018-08-27T10:29:26.951Z,21.3
2018-08-27T10:30:28.395Z,21.3
2018-08-27T10:31:32.092Z,21.3
2018-08-27T10:32:33.371Z,21.1
2018-08-27T10:33:34.690Z,21.1
2018-08-27T10:34:36.375Z,21.2
2018-08-27T10:35:38.241Z,21.3
2018-08-27T10:36:41.653Z,21.2
2018-08-27T10:37:45.565Z,21.3
2018-08-27T10:38:49.330Z,21.1
2018-08-27T10:39:53.655Z,21.1
2018-08-27T10:40:56.790Z,21.2
2018-08-27T10:41:58.021Z,21.1
2018-08-27T10:42:59.572Z,21.1
2018-08-27T10:44:02.562Z,21.2
2018-08-27T10:45:03.823Z,21.4
2018-08-27T10:46:10.430Z,21.4
2018-08-27T10:47:11.757Z,21.5
2018-08-27T10:48:13.002Z,21.5
2018-08-27T10:49:14.337Z,21.4
2018-08-27T10:50:20.035Z,21.5
2018-08-27T10:51:21.545Z,21.6
2018-08-27T10:52:22.973Z,21.6
2018-08-27T10:53:24.220Z,21.7
2018-08-27T10:54:25.569Z,21.7
2018-08-27T10:55:31.387Z,21.7
2018-08-27T10:56:39.860Z,21.6
2018-08-27T10:57:48.080Z,21.7
2018-08-27T10:58:49.575Z,21.7
2018-08-27T10:59:51.802Z,21.7
2018-08-27T11:00:53.094Z,21.8
2018-08-27T11:01:54.392Z,21.8
2018-08-27T11:02:55.707Z,21.8
2018-08-27T11:04:00.379Z,21.8
2018-08-27T11:05:02.164Z,21.8
2018-08-27T11:06:03.413Z,21.8
2018-08-27T11:07:13.617Z,21.8
2018-08-27T11:08:15.093Z,21.9
2018-08-27T11:09:19.899Z,21.9
2018-08-27T11:10:21.330Z,21.9
2018-08-27T11:11:22.845Z,21.9
2018-08-27T11:12:26.853Z,21.9
2018-08-27T11:13:28.286Z,22
2018-08-27T11:14:34.281Z,22
2018-08-27T11:15:37.828Z,22
2018-08-27T11:16:42.152Z,22.1
2018-08-27T11:17:53.471Z,22.1
2018-08-27T11:18:57.004Z,22.1
2018-08-27T11:19:58.404Z,22.1
2018-08-27T11:20:59.663Z,22.2
2018-08-27T11:22:01.004Z,22.2
2018-08-27T11:23:09.271Z,22.2
2018-08-27T11:24:10.529Z,22.3
2018-08-27T11:25:12.154Z,22.2
2018-08-27T11:27:31.621Z,22.2
2018-08-27T11:28:37.724Z,22.2
2018-08-27T11:29:39.312Z,22.2
2018-08-27T11:30:43.107Z,22.1
2018-08-27T11:31:44.545Z,22.3
2018-08-27T11:32:45.839Z,22.3
2018-08-27T11:33:47.098Z,22.3
2018-08-27T11:34:48.724Z,22.3
2018-08-27T11:35:49.992Z,22.4
2018-08-27T11:36:51.736Z,22.3
2018-08-27T11:37:57.260Z,22.4
2018-08-27T11:38:58.736Z,22.4
2018-08-27T11:40:00.214Z,22.5
2018-08-27T11:41:04.321Z,22.5
2018-08-27T11:42:05.645Z,22.5
2018-08-27T11:43:11.712Z,22.5
2018-08-27T11:44:15.762Z,22.6
2018-08-27T11:45:20.075Z,22.6
2018-08-27T11:46:21.450Z,22.6
2018-08-27T11:47:23.073Z,22.6
2018-08-27T11:48:24.312Z,22.6
2018-08-27T11:49:31.914Z,22.7
2018-08-27T11:50:35.561Z,22.7
2018-08-27T11:51:39.723Z,22.7
2018-08-27T11:52:45.691Z,22.7
2018-08-27T11:53:51.263Z,22.8
2018-08-27T11:55:01.576Z,22.8
2018-08-27T11:56:02.933Z,22.8
2018-08-27T11:57:04.257Z,22.8
2018-08-27T11:58:05.743Z,22.8
2018-08-27T11:59:08.598Z,22.8
2018-08-27T12:00:09.917Z,22.9
2018-08-27T12:01:13.515Z,23
2018-08-27T12:02:14.896Z,22.9
2018-08-27T12:03:16.265Z,22.9
2018-08-27T12:04:17.583Z,22.9
2018-08-27T12:05:18.954Z,22.9
2018-08-27T12:06:20.465Z,22.9
2018-08-27T12:07:27.172Z,22.9
2018-08-27T12:08:34.398Z,23
2018-08-27T12:09:38.208Z,23
2018-08-27T12:10:39.500Z,23
2018-08-27T12:11:40.790Z,22.9
2018-08-27T12:12:45.267Z,23
2018-08-27T12:13:49.544Z,23.1
2018-08-27T12:14:52.263Z,23.1
2018-08-27T12:15:53.598Z,23
2018-08-27T12:16:54.914Z,23.1
2018-08-27T12:17:59.081Z,23.1
2018-08-27T12:19:00.420Z,23.1
2018-08-27T12:20:01.774Z,23.1
2018-08-27T12:21:05.313Z,23.1
2018-08-27T12:22:06.856Z,23.2
2018-08-27T12:23:08.482Z,23.2
2018-08-27T12:24:14.309Z,23.2
2018-08-27T12:25:15.710Z,23.2
2018-08-27T12:26:18.793Z,23.3
2018-08-27T12:27:20.242Z,23.3
2018-08-27T12:28:23.616Z,23.3
2018-08-27T12:29:24.974Z,23.3
2018-08-27T12:30:26.233Z,23.3
2018-08-27T12:31:27.504Z,23.3
2018-08-27T12:32:29.957Z,23.3
2018-08-27T12:33:31.280Z,23.3
2018-08-27T12:34:32.782Z,23.4
2018-08-27T12:35:37.465Z,23.4
2018-08-27T12:36:38.691Z,23.4
2018-08-27T12:37:42.215Z,23.3
2018-08-27T12:38:43.451Z,23.4
2018-08-27T12:39:47.226Z,23.4
2018-08-27T12:40:48.483Z,23.4
2018-08-27T12:41:51.005Z,23.4
2018-08-27T12:42:55.804Z,23.3
2018-08-27T12:43:57.398Z,23.4
2018-08-27T12:44:59.198Z,23.4
2018-08-27T12:46:00.984Z,23.4
2018-08-27T12:47:05.023Z,23.4
2018-08-27T12:48:10.533Z,23.4
2018-08-27T12:49:14.429Z,23.4
2018-08-27T12:50:21.219Z,23.4
2018-08-27T12:51:28.480Z,23.5
2018-08-27T12:52:29.919Z,23.4
2018-08-27T12:53:34.483Z,23.3
2018-08-27T12:54:35.873Z,23.4
2018-08-27T12:55:40.705Z,23.4
2018-08-27T12:56:45.128Z,23.4
2018-08-27T12:57:49.290Z,23.4
2018-08-27T12:58:54.450Z,23.5
2018-08-27T13:01:27.558Z,23.5
2018-08-27T13:02:31.659Z,23.4
2018-08-27T13:03:32.939Z,23.3
2018-08-27T13:04:34.201Z,23.1
2018-08-27T13:05:35.474Z,23
2018-08-27T13:06:39.277Z,22.9
2018-08-27T13:07:45.778Z,22.6
2018-08-27T13:08:54.281Z,22.7
2018-08-27T13:11:34.462Z,22.9
2018-08-27T13:12:40.849Z,22.8
2018-08-27T13:13:44.796Z,22.8
2018-08-27T13:14:53.739Z,22.8
2018-08-27T13:15:55.277Z,22.8
2018-08-27T13:17:01.850Z,22.8
2018-08-27T13:18:03.218Z,22.9
2018-08-27T13:19:06.741Z,23
2018-08-27T13:20:12.298Z,22.9
2018-08-27T13:21:19.156Z,22.7
2018-08-27T13:22:26.833Z,22.8
2018-08-27T13:23:28.253Z,22.8
2018-08-27T13:24:33.093Z,22.8
2018-08-27T13:25:36.647Z,22.9
2018-08-27T13:26:37.885Z,22.9
2018-08-27T13:27:39.442Z,23
2018-08-27T13:28:43.795Z,23.1
2018-08-27T13:29:48.196Z,23.2
2018-08-27T13:30:49.447Z,23.1
2018-08-27T13:31:52.244Z,23.1
2018-08-27T13:32:53.493Z,22.8
2018-08-27T13:33:54.834Z,22.9
2018-08-27T13:34:56.265Z,22.9
2018-08-27T13:36:00.614Z,22.9
2018-08-27T13:37:02.047Z,23
2018-08-27T13:38:03.503Z,22.9
2018-08-27T13:39:04.923Z,22.8
2018-08-27T13:40:06.173Z,23
2018-08-27T13:41:07.442Z,23
2018-08-27T13:42:08.733Z,23
2018-08-27T13:43:14.204Z,22.9
2018-08-27T13:44:18.661Z,23
2018-08-27T13:45:27.215Z,23.2
2018-08-27T13:46:28.613Z,23.3
2018-08-27T13:47:32.329Z,23.4
2018-08-27T13:48:40.600Z,23.5
2018-08-27T13:49:42.391Z,23.5
2018-08-27T13:50:43.952Z,23.5
2018-08-27T13:51:46.130Z,23.4
2018-08-27T13:52:49.740Z,23.3
2018-08-27T13:53:51.005Z,23.2
2018-08-27T13:55:02.473Z,23.2
2018-08-27T13:56:03.914Z,23.2
2018-08-27T13:57:05.241Z,23.2
2018-08-27T13:58:06.566Z,23.2
2018-08-27T13:59:08.023Z,23.1